createdAt,value
2018-06-10T00:01:11.707Z,100854.33
2018-06-10T00:03:40.795Z,100848.77
2018-06-10T00:06:09.689Z,100838.19
2018-06-10T00:08:38.603Z,100830.64
2018-06-10T00:11:07.506Z,100825.08
2018-06-10T00:13:36.408Z,100824.63
2018-06-10T00:16:05.331Z,100830.55
2018-06-10T00:18:34.227Z,100831.09
2018-06-10T00:21:03.824Z,100835.09
2018-06-10T00:23:36.697Z,100849.40
2018-06-10T00:26:05.639Z,100858.02
2018-06-10T00:28:40.047Z,100849.70
2018-06-10T00:31:08.961Z,100842.38
2018-06-10T00:33:37.875Z,100848.13
2018-06-10T00:36:06.779Z,100847.64
2018-06-10T00:38:35.679Z,100840.00
2018-06-10T00:41:04.620Z,100843.56
2018-06-10T00:43:33.511Z,100848.21
2018-06-10T00:46:02.416Z,100844.20
2018-06-10T00:48:31.320Z,100854.26
2018-06-10T00:51:00.230Z,100852.92
2018-06-10T00:53:29.131Z,100860.20
2018-06-10T00:55:58.023Z,100869.11
2018-06-10T00:58:26.953Z,100869.73
2018-06-10T01:00:55.859Z,100866.86
2018-06-10T01:03:24.763Z,100861.25
2018-06-10T01:05:53.676Z,100860.45
2018-06-10T01:08:22.575Z,100862.41
2018-06-10T01:10:51.509Z,100855.23
2018-06-10T01:13:20.519Z,100856.84
2018-06-10T01:15:49.427Z,100854.95
2018-06-10T01:18:18.340Z,100853.17
2018-06-10T01:20:47.248Z,100853.89
2018-06-10T01:23:16.155Z,100856.88
2018-06-10T01:25:45.056Z,100843.72
2018-06-10T01:28:13.956Z,100838.52
2018-06-10T01:30:42.900Z,100836.61
2018-06-10T01:33:11.804Z,100833.66
2018-06-10T01:35:40.716Z,100832.80
2018-06-10T01:38:09.647Z,100824.82
2018-06-10T01:40:38.557Z,100819.64
2018-06-10T01:43:07.867Z,100816.40
2018-06-10T01:45:36.781Z,100809.76
2018-06-10T01:48:05.822Z,100807.11
2018-06-10T01:50:34.711Z,100808.17
2018-06-10T01:53:03.630Z,100800.44
2018-06-10T01:55:36.002Z,100805.77
2018-06-10T01:58:04.994Z,100804.91
2018-06-10T02:00:33.927Z,100796.19
2018-06-10T02:03:02.865Z,100798.98
2018-06-10T02:05:31.780Z,100787.70
2018-06-10T02:08:00.733Z,100780.47
2018-06-10T02:10:33.252Z,100781.90
2018-06-10T02:13:02.155Z,100779.83
2018-06-10T02:15:31.132Z,100775.13
2018-06-10T02:18:00.046Z,100776.81
2018-06-10T02:20:28.969Z,100772.98
2018-06-10T02:22:57.907Z,100773.04
2018-06-10T02:25:26.834Z,100768.45
2018-06-10T02:27:55.788Z,100764.64
2018-06-10T02:30:24.845Z,100764.11
2018-06-10T02:32:53.781Z,100761.31
2018-06-10T02:35:22.696Z,100759.92
2018-06-10T02:37:51.600Z,100757.80
2018-06-10T02:40:20.529Z,100761.31
2018-06-10T02:42:49.420Z,100750.03
2018-06-10T02:45:18.356Z,100748.10
2018-06-10T02:47:47.273Z,100747.03
2018-06-10T02:50:16.192Z,100746.80
2018-06-10T02:52:45.102Z,100749.33
2018-06-10T02:55:14.010Z,100756.08
2018-06-10T02:57:42.930Z,100750.57
2018-06-10T03:00:11.841Z,100746.50
2018-06-10T03:02:44.383Z,100758.91
2018-06-10T03:05:13.297Z,100762.53
2018-06-10T03:07:42.228Z,100761.44
2018-06-10T03:10:11.131Z,100762.88
2018-06-10T03:12:40.047Z,100764.79
2018-06-10T03:15:08.947Z,100757.11
2018-06-10T03:17:37.858Z,100752.50
2018-06-10T03:20:06.812Z,100753.36
2018-06-10T03:22:35.736Z,100756.27
2018-06-10T03:25:04.639Z,100760.39
2018-06-10T03:27:33.810Z,100762.56
2018-06-10T03:30:02.779Z,100760.66
2018-06-10T03:32:31.684Z,100758.44
2018-06-10T03:35:00.598Z,100758.41
2018-06-10T03:37:29.518Z,100760.83
2018-06-10T03:39:58.434Z,100756.23
2018-06-10T03:42:27.365Z,100749.20
2018-06-10T03:44:56.273Z,100748.86
2018-06-10T03:47:25.163Z,100749.18
2018-06-10T03:49:54.214Z,100749.55
2018-06-10T03:52:23.152Z,100750.36
2018-06-10T03:54:52.061Z,100756.63
2018-06-10T03:57:20.978Z,100759.91
2018-06-10T03:59:49.890Z,100767.06
2018-06-10T04:02:18.833Z,100761.32
2018-06-10T04:04:47.751Z,100762.50
2018-06-10T04:07:16.686Z,100763.00
2018-06-10T04:09:45.609Z,100767.38
2018-06-10T04:12:14.507Z,100765.98
2018-06-10T04:14:43.445Z,100770.66
2018-06-10T04:17:13.180Z,100765.25
2018-06-10T04:19:42.089Z,100770.41
2018-06-10T04:22:10.999Z,100768.45
2018-06-10T04:24:41.816Z,100766.30
2018-06-10T04:27:10.740Z,100761.42
2018-06-10T04:29:39.769Z,100762.55
2018-06-10T04:32:08.690Z,100759.22
2018-06-10T04:34:37.599Z,100762.50
2018-06-10T04:37:06.503Z,100769.31
2018-06-10T04:39:35.434Z,100776.73
2018-06-10T04:42:04.346Z,100769.95
2018-06-10T04:44:33.273Z,100781.98
2018-06-10T04:47:02.197Z,100782.59
2018-06-10T04:49:31.122Z,100785.61
2018-06-10T04:52:00.059Z,100786.71
2018-06-10T04:54:28.980Z,100785.09
2018-06-10T04:56:57.902Z,100791.59
2018-06-10T04:59:26.810Z,100804.17
2018-06-10T05:01:55.736Z,100808.00
2018-06-10T05:04:24.649Z,100807.47
2018-06-10T05:06:53.613Z,100802.78
2018-06-10T05:09:22.542Z,100808.23
2018-06-10T05:11:51.447Z,100806.67
2018-06-10T05:14:21.031Z,100809.75
2018-06-10T05:16:49.966Z,100811.39
2018-06-10T05:19:18.886Z,100813.34
2018-06-10T05:21:47.817Z,100811.39
2018-06-10T05:24:16.739Z,100820.97
2018-06-10T05:26:45.656Z,100819.95
2018-06-10T05:29:14.573Z,100823.48
2018-06-10T05:31:43.501Z,100821.25
2018-06-10T05:34:12.434Z,100828.06
2018-06-10T05:36:41.338Z,100821.19
2018-06-10T05:39:10.272Z,100824.98
2018-06-10T05:41:39.188Z,100823.92
2018-06-10T05:44:08.116Z,100823.07
2018-06-10T05:46:37.048Z,100835.08
2018-06-10T05:49:05.935Z,100827.41
2018-06-10T05:51:34.836Z,100831.72
2018-06-10T05:54:03.762Z,100833.09
2018-06-10T05:56:32.685Z,100832.54
2018-06-10T05:59:01.617Z,100835.28
2018-06-10T06:01:30.542Z,100831.80
2018-06-10T06:03:59.466Z,100832.02
2018-06-10T06:06:28.366Z,100831.14
2018-06-10T06:08:57.311Z,100831.11
2018-06-10T06:11:26.614Z,100827.02
2018-06-10T06:13:55.816Z,100823.44
2018-06-10T06:16:25.063Z,100827.23
2018-06-10T06:18:54.312Z,100829.70
2018-06-10T06:21:23.248Z,100824.81
2018-06-10T06:23:52.158Z,100829.48
2018-06-10T06:26:21.056Z,100833.24
2018-06-10T06:28:50.817Z,100834.20
2018-06-10T06:31:19.783Z,100837.11
2018-06-10T06:33:48.759Z,100839.05
2018-06-10T06:36:17.682Z,100837.16
2018-06-10T06:38:46.589Z,100841.24
2018-06-10T06:41:15.499Z,100843.08
2018-06-10T06:43:44.569Z,100843.10
2018-06-10T06:46:13.472Z,100849.59
2018-06-10T06:48:42.424Z,100850.13
2018-06-10T06:51:11.332Z,100850.70
2018-06-10T06:53:40.270Z,100850.64
2018-06-10T06:56:09.333Z,100855.85
2018-06-10T06:58:38.277Z,100862.47
2018-06-10T07:01:07.205Z,100869.62
2018-06-10T07:03:36.140Z,100864.97
2018-06-10T07:06:05.180Z,100862.74
2018-06-10T07:08:34.097Z,100861.38
2018-06-10T07:11:03.029Z,100866.05
2018-06-10T07:13:31.932Z,100860.64
2018-06-10T07:16:00.877Z,100860.33
2018-06-10T07:18:29.782Z,100858.69
2018-06-10T07:20:58.690Z,100854.61
2018-06-10T07:23:27.632Z,100854.58
2018-06-10T07:25:56.527Z,100858.34
2018-06-10T07:28:25.444Z,100861.05
2018-06-10T07:30:54.375Z,100859.45
2018-06-10T07:33:23.315Z,100866.77
2018-06-10T07:35:52.246Z,100865.95
2018-06-10T07:38:21.190Z,100870.87
2018-06-10T07:40:50.154Z,100867.63
2018-06-10T07:43:19.096Z,100869.27
2018-06-10T07:45:47.996Z,100867.75
2018-06-10T07:48:16.940Z,100864.36
2018-06-10T07:50:45.867Z,100866.82
2018-06-10T07:53:14.747Z,100861.33
2018-06-10T07:55:43.808Z,100865.81
2018-06-10T07:58:12.699Z,100874.66
2018-06-10T08:00:41.842Z,100872.71
2018-06-10T08:03:10.736Z,100868.98
2018-06-10T08:05:39.661Z,100871.45
2018-06-10T08:08:08.567Z,100865.33
2018-06-10T08:10:37.512Z,100863.88
2018-06-10T08:13:06.429Z,100870.56
2018-06-10T08:15:35.377Z,100866.78
2018-06-10T08:18:04.330Z,100868.91
2018-06-10T08:20:33.285Z,100858.95
2018-06-10T08:23:02.391Z,100857.58
2018-06-10T08:25:31.315Z,100850.95
2018-06-10T08:28:00.218Z,100855.13
2018-06-10T08:30:29.168Z,100860.63
2018-06-10T08:32:58.082Z,100857.83
2018-06-10T08:35:27.011Z,100846.01
2018-06-10T08:37:55.935Z,100849.64
2018-06-10T08:40:24.835Z,100848.19
2018-06-10T08:42:53.728Z,100851.22
2018-06-10T08:45:22.674Z,100851.73
2018-06-10T08:47:51.677Z,100854.02
2018-06-10T08:50:20.596Z,100853.66
2018-06-10T08:52:49.876Z,100847.48
2018-06-10T08:55:18.840Z,100846.72
2018-06-10T08:57:47.765Z,100845.98
2018-06-10T09:00:16.684Z,100846.16
2018-06-10T09:02:46.050Z,100847.56
2018-06-10T09:05:14.937Z,100848.03
2018-06-10T09:07:43.936Z,100848.77
2018-06-10T09:10:12.870Z,100853.14
2018-06-10T09:12:41.785Z,100851.13
2018-06-10T09:15:10.726Z,100849.19
2018-06-10T09:17:39.664Z,100848.84
2018-06-10T09:20:08.568Z,100853.30
2018-06-10T09:22:37.558Z,100859.47
2018-06-10T09:25:06.670Z,100848.50
2018-06-10T09:27:35.603Z,100847.90
2018-06-10T09:30:04.618Z,100854.41
2018-06-10T09:32:33.528Z,100857.41
2018-06-10T09:35:02.480Z,100862.39
2018-06-10T09:37:31.400Z,100862.69
2018-06-10T09:40:00.471Z,100859.84
2018-06-10T09:42:29.468Z,100859.05
2018-06-10T09:44:59.052Z,100864.23
2018-06-10T09:47:27.993Z,100868.53
2018-06-10T09:49:56.970Z,100859.81
2018-06-10T09:52:29.832Z,100858.55
2018-06-10T09:54:58.728Z,100860.65
2018-06-10T09:57:28.284Z,100857.42
2018-06-10T09:59:57.191Z,100852.05
2018-06-10T10:02:26.132Z,100856.00
2018-06-10T10:04:55.576Z,100850.94
2018-06-10T10:07:25.172Z,100848.73
2018-06-10T10:09:54.255Z,100847.47
2018-06-10T10:12:23.190Z,100854.14
2018-06-10T10:14:52.374Z,100851.36
2018-06-10T10:17:21.625Z,100856.35
2018-06-10T10:19:50.575Z,100860.87
2018-06-10T10:22:19.495Z,100868.84
2018-06-10T10:24:48.434Z,100867.13
2018-06-10T10:27:17.350Z,100866.66
2018-06-10T10:29:46.305Z,100859.17
2018-06-10T10:32:15.249Z,100857.84
2018-06-10T10:34:44.190Z,100862.36
2018-06-10T10:37:13.160Z,100865.19
2018-06-10T10:39:45.140Z,100857.05
2018-06-10T10:42:14.135Z,100858.30
2018-06-10T10:44:43.054Z,100861.73
2018-06-10T10:47:12.051Z,100858.03
2018-06-10T10:49:41.022Z,100851.95
2018-06-10T10:52:10.048Z,100859.75
2018-06-10T10:54:38.975Z,100860.67
2018-06-10T10:57:07.932Z,100850.75
2018-06-10T10:59:36.848Z,100851.98
2018-06-10T11:02:06.255Z,100853.52
2018-06-10T11:04:35.238Z,100853.13
2018-06-10T11:07:05.449Z,100856.86
2018-06-10T11:09:34.388Z,100850.48
2018-06-10T11:12:04.546Z,100851.89
2018-06-10T11:14:33.902Z,100858.62
2018-06-10T11:17:03.489Z,100852.48
2018-06-10T11:19:32.844Z,100854.25
2018-06-10T11:22:02.024Z,100859.66
2018-06-10T11:24:31.046Z,100854.55
2018-06-10T11:27:00.012Z,100861.77
2018-06-10T11:29:28.990Z,100854.59
2018-06-10T11:31:57.948Z,100861.64
2018-06-10T11:34:26.889Z,100854.12
2018-06-10T11:36:55.782Z,100856.29
2018-06-10T11:39:24.720Z,100854.92
2018-06-10T11:41:53.677Z,100855.20
2018-06-10T11:44:22.601Z,100853.69
2018-06-10T11:46:51.510Z,100856.23
2018-06-10T11:49:20.793Z,100844.61
2018-06-10T11:51:49.697Z,100847.67
2018-06-10T11:54:18.624Z,100842.75
2018-06-10T11:56:47.589Z,100848.04
2018-06-10T11:59:16.608Z,100855.39
2018-06-10T12:01:45.531Z,100858.51
2018-06-10T12:04:14.443Z,100850.89
2018-06-10T12:06:43.359Z,100848.36
2018-06-10T12:09:12.285Z,100855.28
2018-06-10T12:11:41.201Z,100853.91
2018-06-10T12:14:10.143Z,100851.63
2018-06-10T12:16:42.969Z,100849.64
2018-06-10T12:19:11.779Z,100855.91
2018-06-10T12:21:40.702Z,100852.27
2018-06-10T12:24:09.613Z,100846.94
2018-06-10T12:26:38.533Z,100851.16
2018-06-10T12:29:07.428Z,100847.30
2018-06-10T12:31:36.358Z,100844.25
2018-06-10T12:34:05.420Z,100844.51
2018-06-10T12:36:34.353Z,100836.47
2018-06-10T12:39:04.512Z,100834.28
2018-06-10T12:41:33.397Z,100834.94
2018-06-10T12:44:02.327Z,100834.84
2018-06-10T12:46:31.237Z,100837.15
2018-06-10T12:49:00.149Z,100832.92
2018-06-10T12:51:29.093Z,100831.64
2018-06-10T12:53:58.014Z,100833.89
2018-06-10T12:56:26.939Z,100836.47
2018-06-10T12:58:55.827Z,100830.14
2018-06-10T13:01:24.809Z,100830.69
2018-06-10T13:03:53.731Z,100829.59
2018-06-10T13:06:22.637Z,100825.05
2018-06-10T13:08:51.578Z,100825.09
2018-06-10T13:11:20.512Z,100811.34
2018-06-10T13:13:49.420Z,100808.08
2018-06-10T13:16:18.439Z,100809.83
2018-06-10T13:18:47.397Z,100812.48
2018-06-10T13:21:16.469Z,100806.70
2018-06-10T13:23:45.374Z,100812.19
2018-06-10T13:26:14.267Z,100814.78
2018-06-10T13:28:43.205Z,100812.33
2018-06-10T13:31:12.140Z,100820.17
2018-06-10T13:33:41.070Z,100822.16
2018-06-10T13:36:09.960Z,100814.78
2018-06-10T13:38:38.879Z,100807.91
2018-06-10T13:41:08.065Z,100803.58
2018-06-10T13:43:37.348Z,100804.42
2018-06-10T13:46:06.391Z,100809.77
2018-06-10T13:48:35.299Z,100804.62
2018-06-10T13:51:04.239Z,100803.42
2018-06-10T13:53:33.181Z,100801.78
2018-06-10T13:56:02.082Z,100803.36
2018-06-10T13:58:31.000Z,100803.30
2018-06-10T14:00:59.938Z,100797.09
2018-06-10T14:03:28.876Z,100800.35
2018-06-10T14:05:57.819Z,100798.33
2018-06-10T14:08:26.698Z,100803.06
2018-06-10T14:10:56.942Z,100805.44
2018-06-10T14:13:25.854Z,100800.88
2018-06-10T14:15:54.796Z,100802.83
2018-06-10T14:18:23.737Z,100800.52
2018-06-10T14:20:52.651Z,100804.84
2018-06-10T14:23:21.584Z,100798.63
2018-06-10T14:25:50.498Z,100790.42
2018-06-10T14:28:19.410Z,100792.06
2018-06-10T14:30:48.344Z,100794.45
2018-06-10T14:33:17.246Z,100785.41
2018-06-10T14:35:46.171Z,100789.53
2018-06-10T14:38:15.086Z,100792.91
2018-06-10T14:40:44.041Z,100788.41
2018-06-10T14:43:13.017Z,100786.37
2018-06-10T14:45:41.893Z,100776.05
2018-06-10T14:48:10.816Z,100771.83
2018-06-10T14:50:39.795Z,100773.21
2018-06-10T14:53:08.697Z,100780.21
2018-06-10T14:55:37.639Z,100774.45
2018-06-10T14:58:06.584Z,100762.56
2018-06-10T15:00:35.724Z,100764.47
2018-06-10T15:03:04.784Z,100764.03
2018-06-10T15:05:33.779Z,100762.98
2018-06-10T15:08:04.052Z,100755.49
2018-06-10T15:10:33.075Z,100752.71
2018-06-10T15:13:02.491Z,100756.02
2018-06-10T15:15:31.418Z,100755.21
2018-06-10T15:18:00.333Z,100756.52
2018-06-10T15:20:29.288Z,100755.98
2018-06-10T15:23:02.161Z,100759.31
2018-06-10T15:25:31.088Z,100751.02
2018-06-10T15:28:00.002Z,100758.69
2018-06-10T15:30:28.934Z,100760.82
2018-06-10T15:32:57.946Z,100764.28
2018-06-10T15:35:26.862Z,100765.08
2018-06-10T15:37:55.812Z,100765.33
2018-06-10T15:40:24.715Z,100764.91
2018-06-10T15:42:53.636Z,100763.61
2018-06-10T15:45:22.574Z,100754.89
2018-06-10T15:47:51.517Z,100753.39
2018-06-10T15:50:20.489Z,100754.11
2018-06-10T15:52:49.568Z,100746.97
2018-06-10T15:55:18.588Z,100746.27
2018-06-10T15:57:47.548Z,100748.75
2018-06-10T16:00:16.534Z,100751.56
2018-06-10T16:02:45.588Z,100748.23
2018-06-10T16:05:14.546Z,100748.55
2018-06-10T16:07:43.426Z,100745.00
2018-06-10T16:10:12.393Z,100748.05
2018-06-10T16:12:41.314Z,100748.42
2018-06-10T16:15:10.254Z,100745.16
2018-06-10T16:17:39.143Z,100741.74
2018-06-10T16:20:08.043Z,100742.13
2018-06-10T16:22:40.725Z,100747.44
2018-06-10T16:25:09.616Z,100745.73
2018-06-10T16:27:38.568Z,100739.27
2018-06-10T16:30:07.498Z,100745.02
2018-06-10T16:32:36.441Z,100748.41
2018-06-10T16:35:05.358Z,100736.58
2018-06-10T16:37:34.283Z,100731.91
2018-06-10T16:40:04.262Z,100734.28
2018-06-10T16:42:33.307Z,100731.18
2018-06-10T16:45:02.470Z,100728.75
2018-06-10T16:47:31.389Z,100738.06
2018-06-10T16:50:00.316Z,100741.22
2018-06-10T16:52:29.426Z,100745.02
2018-06-10T16:54:58.356Z,100748.41
2018-06-10T16:57:27.266Z,100749.53
2018-06-10T16:59:56.186Z,100738.27
2018-06-10T17:02:28.509Z,100746.84
2018-06-10T17:05:01.423Z,100746.84
2018-06-10T17:07:30.362Z,100745.20
2018-06-10T17:09:59.286Z,100745.27
2018-06-10T17:12:28.214Z,100751.75
2018-06-10T17:14:57.130Z,100757.25
2018-06-10T17:17:26.066Z,100761.37
2018-06-10T17:19:55.000Z,100767.81
2018-06-10T17:22:23.912Z,100764.23
2018-06-10T17:24:53.187Z,100772.26
2018-06-10T17:27:22.102Z,100764.87
2018-06-10T17:29:51.011Z,100769.85
2018-06-10T17:32:20.209Z,100776.72
2018-06-10T17:34:49.140Z,100772.12
2018-06-10T17:37:18.038Z,100773.55
2018-06-10T17:39:46.973Z,100768.65
2018-06-10T17:42:15.895Z,100771.11
2018-06-10T17:44:44.809Z,100767.79
2018-06-10T17:47:13.726Z,100771.91
2018-06-10T17:49:42.651Z,100769.37
2018-06-10T17:52:11.556Z,100769.68
2018-06-10T17:54:40.511Z,100773.60
2018-06-10T17:57:09.515Z,100777.47
2018-06-10T17:59:38.423Z,100773.29
2018-06-10T18:02:07.345Z,100774.72
2018-06-10T18:04:36.248Z,100773.34
2018-06-10T18:07:05.204Z,100770.91
2018-06-10T18:09:34.122Z,100766.84
2018-06-10T18:12:03.046Z,100763.20
2018-06-10T18:14:32.004Z,100761.23
2018-06-10T18:17:00.920Z,100750.61
2018-06-10T18:19:29.917Z,100756.66
2018-06-10T18:21:58.853Z,100753.16
2018-06-10T18:24:27.796Z,100760.83
2018-06-10T18:26:56.707Z,100766.64
2018-06-10T18:29:25.614Z,100770.82
2018-06-10T18:31:54.615Z,100760.20
2018-06-10T18:34:23.492Z,100753.55
2018-06-10T18:36:52.427Z,100756.67
2018-06-10T18:39:22.546Z,100759.16
2018-06-10T18:41:51.770Z,100753.13
2018-06-10T18:44:20.991Z,100759.53
2018-06-10T18:46:49.901Z,100767.03
2018-06-10T18:49:18.814Z,100771.80
2018-06-10T18:51:47.733Z,100775.94
2018-06-10T18:54:16.657Z,100773.82
2018-06-10T18:56:45.610Z,100778.67
2018-06-10T18:59:14.638Z,100785.28
2018-06-10T19:01:43.565Z,100781.64
2018-06-10T19:04:12.489Z,100780.69
2018-06-10T19:06:41.441Z,100789.99
2018-06-10T19:09:10.366Z,100792.56
2018-06-10T19:11:39.320Z,100804.09
2018-06-10T19:14:08.242Z,100810.52
2018-06-10T19:16:37.184Z,100811.15
2018-06-10T19:19:06.084Z,100822.66
2018-06-10T19:21:35.056Z,100815.01
2018-06-10T19:24:03.963Z,100819.95
2018-06-10T19:26:32.889Z,100826.09
2018-06-10T19:29:02.024Z,100823.16
2018-06-10T19:31:30.966Z,100821.48
2018-06-10T19:33:59.935Z,100815.25
2018-06-10T19:36:32.601Z,100825.16
2018-06-10T19:39:01.545Z,100826.67
2018-06-10T19:41:30.484Z,100827.66
2018-06-10T19:43:59.412Z,100821.94
2018-06-10T19:46:28.334Z,100825.05
2018-06-10T19:49:01.070Z,100832.48
2018-06-10T19:51:30.010Z,100840.14
2018-06-10T19:53:58.988Z,100848.70
2018-06-10T19:56:28.043Z,100848.47
2018-06-10T19:59:00.558Z,100867.57
2018-06-10T20:01:29.823Z,100877.17
2018-06-10T20:03:58.777Z,100885.68
2018-06-10T20:06:27.685Z,100881.98
2018-06-10T20:08:56.861Z,100882.44
2018-06-10T20:11:25.808Z,100876.69
2018-06-10T20:13:54.695Z,100883.89
2018-06-10T20:16:23.644Z,100888.80
2018-06-10T20:18:52.577Z,100886.59
2018-06-10T20:21:21.505Z,100889.08
2018-06-10T20:23:50.548Z,100888.50
2018-06-10T20:26:19.504Z,100888.45
2018-06-10T20:28:48.899Z,100885.91
2018-06-10T20:31:17.881Z,100882.86
2018-06-10T20:33:47.778Z,100887.31
2018-06-10T20:36:16.683Z,100882.97
2018-06-10T20:38:45.770Z,100894.05
2018-06-10T20:41:14.784Z,100898.96
2018-06-10T20:43:43.811Z,100895.11
2018-06-10T20:46:12.711Z,100898.80
2018-06-10T20:48:41.666Z,100900.70
2018-06-10T20:51:10.577Z,100907.05
2018-06-10T20:53:39.747Z,100904.25
2018-06-10T20:56:08.699Z,100903.17
2018-06-10T20:58:37.619Z,100901.84
2018-06-10T21:01:06.562Z,100905.95
2018-06-10T21:03:35.463Z,100902.98
2018-06-10T21:06:04.391Z,100901.64
2018-06-10T21:08:33.437Z,100899.86
2018-06-10T21:11:02.382Z,100899.96
2018-06-10T21:13:31.268Z,100909.81
2018-06-10T21:16:00.172Z,100905.44
2018-06-10T21:18:29.404Z,100907.97
2018-06-10T21:20:58.320Z,100902.85
2018-06-10T21:23:27.353Z,100901.59
2018-06-10T21:25:56.276Z,100900.26
2018-06-10T21:28:25.178Z,100908.80
2018-06-10T21:30:54.098Z,100912.91
2018-06-10T21:33:23.096Z,100910.59
2018-06-10T21:35:52.048Z,100917.47
2018-06-10T21:38:20.943Z,100905.41
2018-06-10T21:40:49.854Z,100904.39
2018-06-10T21:43:18.773Z,100903.38
2018-06-10T21:45:47.713Z,100896.03
2018-06-10T21:48:16.617Z,100903.70
2018-06-10T21:50:45.529Z,100906.39
2018-06-10T21:53:14.536Z,100916.85
2018-06-10T21:55:43.475Z,100917.50
2018-06-10T21:58:12.375Z,100915.03
2018-06-10T22:00:41.381Z,100911.73
2018-06-10T22:03:10.300Z,100908.99
2018-06-10T22:05:39.233Z,100916.72
2018-06-10T22:08:08.145Z,100923.07
2018-06-10T22:10:37.091Z,100920.06
2018-06-10T22:13:06.052Z,100927.49
2018-06-10T22:15:34.972Z,100930.34
2018-06-10T22:18:03.924Z,100927.64
2018-06-10T22:20:32.932Z,100937.00
2018-06-10T22:23:01.902Z,100943.22
2018-06-10T22:25:30.821Z,100946.03
2018-06-10T22:27:59.750Z,100955.55
2018-06-10T22:30:28.672Z,100962.42
2018-06-10T22:32:57.614Z,100962.97
2018-06-10T22:35:26.515Z,100962.97
2018-06-10T22:37:55.413Z,100967.11
2018-06-10T22:40:24.325Z,100969.08
2018-06-10T22:42:53.250Z,100965.52
2018-06-10T22:45:22.174Z,100961.41
2018-06-10T22:47:51.082Z,100967.52
2018-06-10T22:50:20.016Z,100966.69
2018-06-10T22:52:52.596Z,100960.72
2018-06-10T22:55:21.509Z,100967.27
2018-06-10T22:57:50.428Z,100968.92
2018-06-10T23:00:19.354Z,100974.64
2018-06-10T23:02:48.485Z,100977.13
2018-06-10T23:05:17.375Z,100979.30
2018-06-10T23:07:46.272Z,100981.81
2018-06-10T23:10:15.209Z,100982.89
2018-06-10T23:12:44.144Z,100976.89
2018-06-10T23:15:13.059Z,100977.72
2018-06-10T23:17:41.966Z,100974.97
2018-06-10T23:20:10.900Z,100966.27
2018-06-10T23:22:43.062Z,100970.03
2018-06-10T23:25:11.978Z,100970.59
2018-06-10T23:27:40.922Z,100981.00
2018-06-10T23:30:09.849Z,100977.46
2018-06-10T23:32:38.745Z,100982.95
2018-06-10T23:35:07.679Z,100980.48
2018-06-10T23:37:36.598Z,100981.05
2018-06-10T23:40:05.545Z,100982.71
2018-06-10T23:42:34.471Z,100976.68
2018-06-10T23:45:03.398Z,100976.67
2018-06-10T23:47:32.316Z,100968.20
2018-06-10T23:50:01.242Z,100972.02
2018-06-10T23:52:30.173Z,100964.41
2018-06-10T23:54:59.317Z,100974.53
2018-06-10T23:57:28.315Z,100971.52
2018-06-10T23:59:57.238Z,100975.33
